Terminal Aerodrome Forecast
Issued by NWS Twin Cities, MN

Home | Current Version | Previous Version | Graphics & Text | Print | Product List | Glossary On
Versions: 1 2 3 4 5 6 7 8 9 10 11 12 13 14 15 16 17 18 19 20 21 22 23 24
864
FTUS43 KMPX 282320
TAFMSP
TAF
KMSP 282320Z 2900/3006 VRB04KT P6SM BKN250
     FM291500 11007KT P6SM SCT120 BKN200
     FM300000 10006KT P6SM SCT020 OVC040 PROB30 3000/3006 6SM -RA BR
      BKN030=

USA.gov is the U.S. government's official web portal to all federal, state and local government web resources and services.